sensor_id;sensor_type;location;lat;lon;timestamp;pressure;altitude;pressure_sealevel;temperature;humidity
58739;BME280;44512;53.046;18.604;2022-09-12T00:03:12;101491.91;;;14.82;58.80
58739;BME280;44512;53.046;18.604;2022-09-12T00:13:41;101492.54;;;14.77;59.04
58739;BME280;44512;53.046;18.604;2022-09-12T00:24:09;101479.75;;;14.71;59.26
58739;BME280;44512;53.046;18.604;2022-09-12T00:34:37;101483.54;;;14.64;59.53
58739;BME280;44512;53.046;18.604;2022-09-12T00:45:18;101479.77;;;14.58;59.77
58739;BME280;44512;53.046;18.604;2022-09-12T00:55:38;101487.91;;;14.51;60.08
58739;BME280;44512;53.046;18.604;2022-09-12T01:16:34;101485.34;;;14.37;60.60
58739;BME280;44512;53.046;18.604;2022-09-12T01:27:54;101490.38;;;14.33;60.85
58739;BME280;44512;53.046;18.604;2022-09-12T01:48:05;101478.21;;;14.22;61.43
58739;BME280;44512;53.046;18.604;2022-09-12T01:58:41;101481.94;;;14.15;61.67
58739;BME280;44512;53.046;18.604;2022-09-12T02:29:51;101499.93;;;14.02;61.90
58739;BME280;44512;53.046;18.604;2022-09-12T02:40:18;101498.87;;;13.97;61.96
58739;BME280;44512;53.046;18.604;2022-09-12T02:50:46;101511.80;;;13.88;62.05
58739;BME280;44512;53.046;18.604;2022-09-12T03:32:42;101529.90;;;13.33;63.07
58739;BME280;44512;53.046;18.604;2022-09-12T03:43:08;101526.04;;;13.21;63.44
58739;BME280;44512;53.046;18.604;2022-09-12T03:53:37;101520.98;;;13.18;63.68
58739;BME280;44512;53.046;18.604;2022-09-12T04:04:05;101533.55;;;13.19;63.96
58739;BME280;44512;53.046;18.604;2022-09-12T04:14:33;101543.01;;;13.23;64.08
58739;BME280;44512;53.046;18.604;2022-09-12T04:25:02;101542.63;;;13.26;64.16
58739;BME280;44512;53.046;18.604;2022-09-12T04:35:30;101550.40;;;13.29;64.03
58739;BME280;44512;53.046;18.604;2022-09-12T04:46:04;101548.70;;;13.28;64.17
58739;BME280;44512;53.046;18.604;2022-09-12T04:56:28;101549.10;;;13.25;64.32
58739;BME280;44512;53.046;18.604;2022-09-12T05:06:55;101556.21;;;13.26;64.52
58739;BME280;44512;53.046;18.604;2022-09-12T05:17:23;101564.62;;;13.31;64.63
58739;BME280;44512;53.046;18.604;2022-09-12T05:27:52;101570.69;;;13.33;64.85
58739;BME280;44512;53.046;18.604;2022-09-12T05:38:20;101574.31;;;13.40;64.98
58739;BME280;44512;53.046;18.604;2022-09-12T05:48:49;101589.84;;;13.46;65.29
58739;BME280;44512;53.046;18.604;2022-09-12T05:59:20;101594.47;;;13.52;65.42
58739;BME280;44512;53.046;18.604;2022-09-12T06:09:45;101590.57;;;13.62;65.61
58739;BME280;44512;53.046;18.604;2022-09-12T06:20:14;101591.27;;;13.70;65.69
58739;BME280;44512;53.046;18.604;2022-09-12T06:41:12;101603.95;;;13.91;65.53
58739;BME280;44512;53.046;18.604;2022-09-12T06:51:39;101593.32;;;14.03;65.47
58739;BME280;44512;53.046;18.604;2022-09-12T07:02:07;101595.66;;;14.13;65.29
58739;BME280;44512;53.046;18.604;2022-09-12T07:12:35;101611.41;;;14.24;65.01
58739;BME280;44512;53.046;18.604;2022-09-12T07:23:04;101607.05;;;14.36;64.72
58739;BME280;44512;53.046;18.604;2022-09-12T07:33:32;101624.54;;;14.48;64.46
58739;BME280;44512;53.046;18.604;2022-09-12T07:44:02;101627.29;;;14.62;64.06
58739;BME280;44512;53.046;18.604;2022-09-12T07:54:29;101636.56;;;14.74;63.54
58739;BME280;44512;53.046;18.604;2022-09-12T08:04:57;101634.91;;;14.86;63.25
58739;BME280;44512;53.046;18.604;2022-09-12T08:15:26;101638.69;;;14.98;62.94
58739;BME280;44512;53.046;18.604;2022-09-12T08:25:55;101637.05;;;15.10;62.41
58739;BME280;44512;53.046;18.604;2022-09-12T08:36:25;101629.29;;;15.21;61.56
58739;BME280;44512;53.046;18.604;2022-09-12T08:57:19;101644.18;;;15.45;58.65
58739;BME280;44512;53.046;18.604;2022-09-12T09:07:59;101645.24;;;15.57;57.85
58739;BME280;44512;53.046;18.604;2022-09-12T09:18:23;101654.91;;;15.73;57.31
58739;BME280;44512;53.046;18.604;2022-09-12T09:28:47;101640.84;;;15.82;56.87
58739;BME280;44512;53.046;18.604;2022-09-12T09:49:41;101644.96;;;16.05;55.65
58739;BME280;44512;53.046;18.604;2022-09-12T10:00:19;101649.99;;;16.14;55.15
58739;BME280;44512;53.046;18.604;2022-09-12T10:10:52;101650.37;;;16.25;54.30
58739;BME280;44512;53.046;18.604;2022-09-12T10:21:13;101656.22;;;16.35;53.97
58739;BME280;44512;53.046;18.604;2022-09-12T10:42:03;101649.85;;;16.54;53.07
58739;BME280;44512;53.046;18.604;2022-09-12T10:52:31;101643.28;;;16.62;52.04
58739;BME280;44512;53.046;18.604;2022-09-12T11:03:14;101651.88;;;16.72;51.74
58739;BME280;44512;53.046;18.604;2022-09-12T11:45:00;101632.09;;;17.08;49.26
58739;BME280;44512;53.046;18.604;2022-09-12T11:55:31;101643.37;;;17.18;49.14
58739;BME280;44512;53.046;18.604;2022-09-12T12:16:23;101631.94;;;17.28;47.91
58739;BME280;44512;53.046;18.604;2022-09-12T12:26:55;101641.48;;;17.44;47.14
58739;BME280;44512;53.046;18.604;2022-09-12T12:47:49;101634.61;;;17.60;46.36
58739;BME280;44512;53.046;18.604;2022-09-12T13:08:43;101630.36;;;17.89;44.99
58739;BME280;44512;53.046;18.604;2022-09-12T13:19:18;101618.79;;;18.05;44.95
58739;BME280;44512;53.046;18.604;2022-09-12T13:29:36;101621.52;;;18.23;43.80
58739;BME280;44512;53.046;18.604;2022-09-12T13:50:41;101615.77;;;18.62;42.21
58739;BME280;44512;53.046;18.604;2022-09-12T14:01:15;101618.26;;;18.82;41.62
58739;BME280;44512;53.046;18.604;2022-09-12T14:11:30;101610.19;;;18.98;41.47
58739;BME280;44512;53.046;18.604;2022-09-12T14:21:58;101617.03;;;19.19;41.34
58739;BME280;44512;53.046;18.604;2022-09-12T14:32:26;101606.30;;;19.41;40.88
58739;BME280;44512;53.046;18.604;2022-09-12T14:42:55;101605.52;;;19.64;40.12
58739;BME280;44512;53.046;18.604;2022-09-12T15:03:53;101601.77;;;20.06;39.34
58739;BME280;44512;53.046;18.604;2022-09-12T15:14:19;101610.30;;;20.33;39.21
58739;BME280;44512;53.046;18.604;2022-09-12T15:24:48;101603.84;;;20.67;38.73
58739;BME280;44512;53.046;18.604;2022-09-12T15:35:23;101611.24;;;20.95;37.47
58739;BME280;44512;53.046;18.604;2022-09-12T15:45:48;101603.25;;;21.27;37.46
58739;BME280;44512;53.046;18.604;2022-09-12T15:56:17;101600.90;;;21.70;36.80
58739;BME280;44512;53.046;18.604;2022-09-12T16:06:41;101609.16;;;21.70;36.30
58739;BME280;44512;53.046;18.604;2022-09-12T16:17:09;101609.62;;;21.45;36.68
58739;BME280;44512;53.046;18.604;2022-09-12T16:27:38;101601.07;;;21.13;37.40
58739;BME280;44512;53.046;18.604;2022-09-12T16:38:06;101604.73;;;20.85;38.28
58739;BME280;44512;53.046;18.604;2022-09-12T16:53:51;101592.92;;;20.44;39.75
58739;BME280;44512;53.046;18.604;2022-09-12T17:04:19;101590.02;;;20.22;40.62
58739;BME280;44512;53.046;18.604;2022-09-12T17:14:48;101599.13;;;19.99;41.71
58739;BME280;44512;53.046;18.604;2022-09-12T17:25:16;101600.15;;;19.69;43.68
58739;BME280;44512;53.046;18.604;2022-09-12T17:35:45;101600.95;;;19.35;44.63
58739;BME280;44512;53.046;18.604;2022-09-12T17:46:13;101609.70;;;19.02;45.51
58739;BME280;44512;53.046;18.604;2022-09-12T17:56:42;101617.12;;;18.71;46.16
58739;BME280;44512;53.046;18.604;2022-09-12T18:07:10;101616.62;;;18.44;47.04
58739;BME280;44512;53.046;18.604;2022-09-12T18:17:38;101627.47;;;18.20;47.88
58739;BME280;44512;53.046;18.604;2022-09-12T18:28:06;101621.23;;;17.95;48.38
58739;BME280;44512;53.046;18.604;2022-09-12T18:38:35;101622.07;;;17.70;48.77
58739;BME280;44512;53.046;18.604;2022-09-12T18:49:03;101632.38;;;17.50;49.06
58739;BME280;44512;53.046;18.604;2022-09-12T18:59:34;101619.69;;;17.31;49.25
58739;BME280;44512;53.046;18.604;2022-09-12T19:09:59;101634.39;;;17.11;49.27
58739;BME280;44512;53.046;18.604;2022-09-12T19:20:28;101622.29;;;16.94;49.54
58739;BME280;44512;53.046;18.604;2022-09-12T19:30:56;101609.62;;;16.75;49.81
58739;BME280;44512;53.046;18.604;2022-09-12T19:41:25;101609.03;;;16.59;50.18
58739;BME280;44512;53.046;18.604;2022-09-12T19:51:53;101603.02;;;16.44;50.50
58739;BME280;44512;53.046;18.604;2022-09-12T20:02:21;101608.76;;;16.29;50.93
58739;BME280;44512;53.046;18.604;2022-09-12T20:12:50;101602.91;;;16.12;51.48
58739;BME280;44512;53.046;18.604;2022-09-12T20:23:18;101599.20;;;16.00;51.85
58739;BME280;44512;53.046;18.604;2022-09-12T20:33:46;101603.84;;;15.86;52.28
58739;BME280;44512;53.046;18.604;2022-09-12T20:44:15;101599.87;;;15.76;52.50
58739;BME280;44512;53.046;18.604;2022-09-12T20:54:43;101603.25;;;15.58;52.61
58739;BME280;44512;53.046;18.604;2022-09-12T21:05:12;101591.30;;;15.39;52.74
58739;BME280;44512;53.046;18.604;2022-09-12T21:15:40;101579.37;;;15.20;52.80
58739;BME280;44512;53.046;18.604;2022-09-12T21:26:09;101590.48;;;15.05;53.22
58739;BME280;44512;53.046;18.604;2022-09-12T21:36:37;101579.34;;;14.94;53.58
58739;BME280;44512;53.046;18.604;2022-09-12T21:47:05;101575.78;;;14.80;53.83
58739;BME280;44512;53.046;18.604;2022-09-12T21:57:34;101578.68;;;14.65;53.74
58739;BME280;44512;53.046;18.604;2022-09-12T22:08:02;101586.19;;;14.50;53.86
58739;BME280;44512;53.046;18.604;2022-09-12T22:18:34;101578.15;;;14.35;54.15
58739;BME280;44512;53.046;18.604;2022-09-12T22:28:59;101559.90;;;14.22;54.43
58739;BME280;44512;53.046;18.604;2022-09-12T22:39:27;101558.16;;;14.08;54.51
58739;BME280;44512;53.046;18.604;2022-09-12T22:49:55;101548.26;;;13.94;54.64
58739;BME280;44512;53.046;18.604;2022-09-12T23:00:24;101547.34;;;13.80;54.65
58739;BME280;44512;53.046;18.604;2022-09-12T23:21:21;101551.80;;;13.53;54.88
58739;BME280;44512;53.046;18.604;2022-09-12T23:31:49;101537.92;;;13.41;54.97
58739;BME280;44512;53.046;18.604;2022-09-12T23:42:17;101524.23;;;13.28;55.02
58739;BME280;44512;53.046;18.604;2022-09-12T23:52:46;101513.24;;;13.15;55.15
